createdAt,value
2023-02-14T00:00:22.735Z,24.83
2023-02-14T00:02:49.738Z,24.40
2023-02-14T00:05:16.694Z,25.23
2023-02-14T00:07:44.284Z,25.02
2023-02-14T00:10:11.189Z,25.45
2023-02-14T00:12:38.236Z,24.55
2023-02-14T00:15:05.344Z,23.38
2023-02-14T00:17:32.376Z,24.02
2023-02-14T00:19:59.306Z,22.83
2023-02-14T00:22:26.410Z,24.88
2023-02-14T00:24:53.489Z,24.38
2023-02-14T00:27:20.410Z,23.83
2023-02-14T00:29:47.450Z,24.63
2023-02-14T00:32:14.695Z,24.80
2023-02-14T00:34:41.640Z,23.52
2023-02-14T00:37:08.572Z,24.58
2023-02-14T00:39:35.499Z,24.95
2023-02-14T00:42:02.409Z,23.30
2023-02-14T00:44:29.323Z,24.33
2023-02-14T00:46:56.225Z,22.50
2023-02-14T00:49:23.204Z,23.58
2023-02-14T00:51:50.103Z,24.63
2023-02-14T00:54:17.031Z,22.63
2023-02-14T00:56:44.125Z,26.00
2023-02-14T00:59:11.420Z,28.27
2023-02-14T01:01:38.627Z,24.05
2023-02-14T01:04:05.650Z,23.63
2023-02-14T01:06:33.113Z,25.00
2023-02-14T01:09:00.102Z,26.15
2023-02-14T01:11:30.298Z,26.67
2023-02-14T01:13:57.684Z,24.98
2023-02-14T01:16:24.842Z,23.77
2023-02-14T01:18:51.907Z,24.88
2023-02-14T01:21:18.851Z,25.63
2023-02-14T01:23:46.448Z,26.00
2023-02-14T01:26:13.560Z,24.02
2023-02-14T01:28:40.719Z,23.52
2023-02-14T01:31:07.830Z,21.98
2023-02-14T01:33:35.131Z,25.73
2023-02-14T01:36:02.307Z,23.58
2023-02-14T01:38:29.440Z,26.17
2023-02-14T01:40:56.381Z,24.10
2023-02-14T01:43:24.479Z,25.33
2023-02-14T01:45:51.635Z,25.70
2023-02-14T01:48:18.804Z,23.48
2023-02-14T01:50:45.902Z,25.65
2023-02-14T01:53:12.938Z,27.88
2023-02-14T01:55:39.856Z,25.92
2023-02-14T01:58:06.839Z,26.92
2023-02-14T02:00:33.794Z,24.20
2023-02-14T02:03:00.976Z,25.20
2023-02-14T02:05:29.084Z,26.27
2023-02-14T02:07:56.507Z,25.27
2023-02-14T02:10:23.661Z,25.42
2023-02-14T02:12:51.094Z,28.83
2023-02-14T02:15:18.217Z,26.50
2023-02-14T02:17:45.169Z,26.67
2023-02-14T02:20:12.128Z,26.52
2023-02-14T02:22:39.036Z,23.42
2023-02-14T02:25:05.985Z,26.80
2023-02-14T02:27:33.068Z,26.63
2023-02-14T02:30:00.291Z,24.98
2023-02-14T02:32:27.257Z,25.80
2023-02-14T02:34:54.315Z,27.27
2023-02-14T02:37:21.227Z,25.38
2023-02-14T02:39:48.202Z,27.40
2023-02-14T02:42:15.182Z,24.80
2023-02-14T02:44:42.133Z,25.00
2023-02-14T02:47:09.066Z,27.17
2023-02-14T02:49:36.002Z,25.05
2023-02-14T02:52:02.925Z,26.52
2023-02-14T02:54:29.868Z,28.25
2023-02-14T02:56:56.801Z,26.17
2023-02-14T02:59:23.728Z,27.25
2023-02-14T03:01:50.769Z,27.02
2023-02-14T03:04:17.744Z,27.55
2023-02-14T03:06:44.660Z,27.42
2023-02-14T03:09:11.640Z,27.52
2023-02-14T03:11:38.564Z,27.80
2023-02-14T03:14:05.509Z,28.38
2023-02-14T03:16:32.915Z,26.30
2023-02-14T03:18:59.890Z,29.75
2023-02-14T03:21:26.900Z,25.90
2023-02-14T03:23:53.829Z,28.63
2023-02-14T03:26:20.733Z,24.90
2023-02-14T03:28:47.686Z,26.33
2023-02-14T03:31:14.724Z,26.77
2023-02-14T03:33:41.799Z,28.23
2023-02-14T03:36:08.841Z,27.25
2023-02-14T03:38:35.756Z,26.67
2023-02-14T03:41:02.702Z,28.50
2023-02-14T03:43:29.657Z,28.10
2023-02-14T03:45:56.753Z,25.17
2023-02-14T03:48:23.753Z,27.25
2023-02-14T03:50:50.700Z,28.25
2023-02-14T03:53:17.646Z,27.70
2023-02-14T03:55:44.553Z,26.23
2023-02-14T03:58:11.501Z,29.17
2023-02-14T04:00:38.453Z,26.40
2023-02-14T04:03:05.367Z,28.48
2023-02-14T04:05:32.288Z,27.20
2023-02-14T04:07:59.362Z,27.92
2023-02-14T04:10:26.297Z,28.05
2023-02-14T04:12:53.217Z,28.17
2023-02-14T04:15:20.234Z,28.75
2023-02-14T04:17:47.226Z,30.73
2023-02-14T04:20:16.360Z,29.35
2023-02-14T04:22:43.370Z,29.55
2023-02-14T04:25:10.336Z,26.73
2023-02-14T04:27:37.259Z,28.55
2023-02-14T04:30:04.195Z,31.67
2023-02-14T04:32:31.126Z,28.80
2023-02-14T04:34:58.076Z,29.73
2023-02-14T04:37:25.097Z,29.67
2023-02-14T04:39:52.018Z,27.77
2023-02-14T04:42:18.954Z,28.05
2023-02-14T04:44:45.870Z,33.05
2023-02-14T04:47:12.805Z,27.65
2023-02-14T04:49:39.742Z,29.02
2023-02-14T04:52:06.667Z,30.85
2023-02-14T04:54:33.599Z,30.52
2023-02-14T04:57:00.510Z,27.73
2023-02-14T04:59:27.453Z,29.45
2023-02-14T05:01:54.478Z,31.65
2023-02-14T05:04:21.442Z,31.77
2023-02-14T05:06:48.340Z,30.10
2023-02-14T05:09:15.451Z,31.33
2023-02-14T05:11:42.407Z,30.42
2023-02-14T05:14:10.240Z,32.10
2023-02-14T05:16:37.180Z,31.08
2023-02-14T05:19:04.359Z,29.55
2023-02-14T05:21:32.303Z,30.80
2023-02-14T05:23:59.252Z,34.67
2023-02-14T05:26:26.152Z,31.10
2023-02-14T05:28:53.120Z,29.70
2023-02-14T05:31:20.132Z,32.90
2023-02-14T05:33:47.149Z,33.40
2023-02-14T05:36:14.050Z,34.15
2023-02-14T05:38:40.948Z,33.55
2023-02-14T05:41:07.876Z,33.42
2023-02-14T05:43:34.775Z,33.88
2023-02-14T05:46:01.738Z,32.00
2023-02-14T05:48:28.712Z,33.53
2023-02-14T05:50:55.628Z,33.25
2023-02-14T05:53:22.680Z,31.50
2023-02-14T05:55:49.633Z,31.95
2023-02-14T05:58:16.566Z,31.95
2023-02-14T06:00:43.480Z,30.42
2023-02-14T06:03:10.434Z,32.08
2023-02-14T06:05:37.354Z,33.58
2023-02-14T06:08:04.281Z,35.78
2023-02-14T06:10:31.201Z,29.73
2023-02-14T06:12:58.130Z,31.35
2023-02-14T06:15:25.047Z,31.05
2023-02-14T06:17:51.963Z,29.83
2023-02-14T06:20:18.889Z,34.53
2023-02-14T06:22:45.892Z,32.33
2023-02-14T06:25:12.824Z,32.70
2023-02-14T06:30:20.726Z,29.10
2023-02-14T06:32:47.698Z,30.52
2023-02-14T06:35:14.623Z,30.15
2023-02-14T06:37:41.547Z,34.05
2023-02-14T06:40:08.487Z,30.98
2023-02-14T06:42:35.400Z,34.42
2023-02-14T06:45:02.330Z,31.45
2023-02-14T06:47:29.329Z,32.95
2023-02-14T06:49:56.415Z,34.60
2023-02-14T06:52:23.321Z,32.85
2023-02-14T06:54:50.481Z,30.90
2023-02-14T06:57:17.425Z,32.42
2023-02-14T06:59:45.304Z,35.17
2023-02-14T07:02:12.377Z,33.83
2023-02-14T07:04:39.336Z,31.17
2023-02-14T07:07:06.243Z,34.05
2023-02-14T07:09:33.177Z,32.50
2023-02-14T07:12:00.100Z,37.45
2023-02-14T07:14:27.291Z,36.50
2023-02-14T07:16:54.215Z,31.35
2023-02-14T07:19:21.401Z,36.08
2023-02-14T07:21:48.358Z,33.97
2023-02-14T07:24:15.281Z,35.97
2023-02-14T07:26:42.215Z,36.30
2023-02-14T07:29:09.144Z,33.80
2023-02-14T07:31:36.215Z,38.47
2023-02-14T07:34:03.230Z,39.25
2023-02-14T07:36:30.149Z,36.88
2023-02-14T07:38:57.062Z,42.03
2023-02-14T07:41:24.040Z,36.42
2023-02-14T07:43:50.970Z,37.47
2023-02-14T07:46:17.905Z,39.97
2023-02-14T07:48:44.935Z,38.10
2023-02-14T07:51:11.907Z,37.88
2023-02-14T07:53:38.833Z,41.55
2023-02-14T07:56:05.783Z,41.60
2023-02-14T07:58:32.716Z,43.10
2023-02-14T08:00:59.890Z,41.45
2023-02-14T08:03:27.051Z,39.42
2023-02-14T08:05:54.010Z,41.47
2023-02-14T08:08:20.927Z,36.90
2023-02-14T08:10:47.855Z,40.05
2023-02-14T08:13:14.835Z,41.30
2023-02-14T08:15:41.798Z,41.30
2023-02-14T08:18:08.782Z,34.60
2023-02-14T08:20:36.411Z,36.38
2023-02-14T08:23:03.352Z,37.75
2023-02-14T08:25:30.297Z,38.08
2023-02-14T08:27:57.227Z,37.58
2023-02-14T08:30:24.362Z,40.55
2023-02-14T08:32:51.392Z,37.47
2023-02-14T08:35:18.352Z,38.22
2023-02-14T08:37:45.297Z,35.53
2023-02-14T08:40:12.422Z,36.72
2023-02-14T08:42:39.344Z,38.50
2023-02-14T08:45:06.288Z,38.85
2023-02-14T08:47:33.303Z,42.08
2023-02-14T08:50:00.264Z,36.33
2023-02-14T08:52:29.255Z,39.92
2023-02-14T08:54:56.186Z,38.33
2023-02-14T08:57:23.138Z,38.47
2023-02-14T08:59:50.051Z,37.83
2023-02-14T09:02:16.981Z,35.60
2023-02-14T09:04:43.917Z,37.42
2023-02-14T09:07:11.350Z,34.28
2023-02-14T09:09:38.417Z,34.80
2023-02-14T09:12:05.426Z,35.47
2023-02-14T09:14:32.346Z,34.05
2023-02-14T09:16:59.364Z,34.05
2023-02-14T09:19:26.501Z,36.17
2023-02-14T09:21:53.481Z,36.83
2023-02-14T09:24:20.427Z,35.58
2023-02-14T09:26:49.799Z,34.63
2023-02-14T09:29:16.886Z,33.80
2023-02-14T09:31:44.736Z,38.05
2023-02-14T09:34:12.480Z,35.47
2023-02-14T09:36:41.573Z,35.10
2023-02-14T09:39:08.603Z,35.30
2023-02-14T09:41:35.582Z,38.17
2023-02-14T09:44:02.552Z,33.97
2023-02-14T09:46:29.818Z,34.63
2023-02-14T09:48:56.854Z,36.30
2023-02-14T09:51:23.870Z,30.50
2023-02-14T09:53:50.870Z,34.15
2023-02-14T09:56:17.921Z,34.72
2023-02-14T09:58:44.955Z,35.58
2023-02-14T10:01:12.013Z,34.13
2023-02-14T10:03:39.094Z,33.17
2023-02-14T10:06:06.035Z,33.47
2023-02-14T10:08:33.017Z,30.70
2023-02-14T10:11:00.575Z,35.55
2023-02-14T10:13:27.826Z,30.92
2023-02-14T10:15:54.797Z,31.05
2023-02-14T10:18:21.691Z,33.70
2023-02-14T10:20:49.504Z,31.35
2023-02-14T10:23:16.470Z,32.40
2023-02-14T10:25:43.554Z,28.27
2023-02-14T10:28:11.495Z,32.20
2023-02-14T11:40:49.331Z,29.25
2023-02-14T11:43:16.310Z,28.15
2023-02-14T11:45:43.382Z,31.83
2023-02-14T11:48:10.429Z,29.40
2023-02-14T11:50:37.358Z,28.33
2023-02-14T11:53:04.302Z,29.50
2023-02-14T11:55:33.753Z,27.90
2023-02-14T11:58:00.712Z,29.10
2023-02-14T12:00:27.825Z,27.27
2023-02-14T12:02:54.825Z,29.75
2023-02-14T12:05:21.721Z,27.92
2023-02-14T12:07:48.700Z,30.08
2023-02-14T12:10:15.758Z,30.75
2023-02-14T12:12:42.794Z,27.15
2023-02-14T12:15:09.718Z,31.13
2023-02-14T12:17:36.649Z,28.75
2023-02-14T12:20:03.604Z,30.88
2023-02-14T12:22:30.602Z,26.92
2023-02-14T12:24:57.548Z,30.38
2023-02-14T12:27:24.460Z,28.27
2023-02-14T12:29:51.392Z,28.95
2023-02-14T12:32:56.494Z,29.75
2023-02-14T12:35:23.473Z,30.10
2023-02-14T12:37:59.129Z,30.75
2023-02-14T12:40:26.182Z,30.75
2023-02-14T12:42:53.361Z,30.25
2023-02-14T12:45:20.277Z,31.02
2023-02-14T12:47:47.222Z,30.75
2023-02-14T12:50:14.172Z,29.38
2023-02-14T12:52:41.120Z,31.35
2023-02-14T12:55:08.041Z,31.30
2023-02-14T12:57:34.970Z,31.63
2023-02-14T13:00:01.870Z,34.40
2023-02-14T13:02:29.036Z,32.45
2023-02-14T13:04:56.044Z,32.63
2023-02-14T13:07:22.955Z,36.08
2023-02-14T13:09:49.861Z,31.48
2023-02-14T13:12:17.004Z,30.67
2023-02-14T13:14:43.935Z,31.52
2023-02-14T13:17:10.841Z,34.17
2023-02-14T13:19:37.761Z,34.60
2023-02-14T13:22:04.682Z,31.52
2023-02-14T13:24:31.945Z,32.30
2023-02-14T13:26:59.466Z,32.60
2023-02-14T13:29:26.399Z,29.88
2023-02-14T13:43:05.156Z,33.58
2023-02-14T13:45:38.527Z,30.58
2023-02-14T13:48:05.455Z,34.38
2023-02-14T13:50:32.385Z,33.20
2023-02-14T13:52:59.344Z,32.40
2023-02-14T13:55:26.308Z,34.50
2023-02-14T13:57:53.237Z,32.50
2023-02-14T14:00:20.191Z,33.08
2023-02-14T14:02:47.123Z,29.63
2023-02-14T14:05:14.054Z,30.88
2023-02-14T14:07:41.134Z,30.58
2023-02-14T14:10:08.098Z,33.20
2023-02-14T14:12:35.019Z,33.38
2023-02-14T14:15:01.922Z,33.88
2023-02-14T14:17:28.823Z,31.55
2023-02-14T14:19:55.828Z,30.70
2023-02-14T14:22:22.763Z,28.67
2023-02-14T14:24:51.029Z,31.77
2023-02-14T14:27:17.959Z,30.30
2023-02-14T14:29:44.855Z,29.60
2023-02-14T14:32:11.797Z,31.73
2023-02-14T14:34:38.839Z,29.33
2023-02-14T14:37:05.770Z,32.53
2023-02-14T14:39:32.684Z,31.30
2023-02-14T14:41:59.645Z,31.05
2023-02-14T14:44:26.553Z,31.48
2023-02-14T14:46:53.436Z,30.00
2023-02-14T14:49:20.327Z,35.80
2023-02-14T14:51:47.239Z,32.17
2023-02-14T14:54:14.215Z,33.75
2023-02-14T14:56:41.117Z,29.98
2023-02-14T14:59:08.019Z,31.33
2023-02-14T15:01:34.922Z,32.55
2023-02-14T15:04:01.880Z,31.05
2023-02-14T15:06:28.788Z,33.20
2023-02-14T15:08:55.703Z,31.55
2023-02-14T15:11:22.625Z,32.13
2023-02-14T15:13:49.692Z,33.42
2023-02-14T15:16:18.097Z,31.35
2023-02-14T15:18:45.112Z,34.97
2023-02-14T15:21:12.186Z,31.33
2023-02-14T15:23:39.144Z,33.65
2023-02-14T15:26:06.056Z,31.75
2023-02-14T15:28:33.097Z,27.83
2023-02-14T15:31:00.486Z,29.73
2023-02-14T15:33:27.714Z,30.02
2023-02-14T15:35:54.644Z,27.83
2023-02-14T15:38:21.601Z,30.67
2023-02-14T15:40:48.533Z,28.60
2023-02-14T15:43:15.575Z,32.50
2023-02-14T15:45:42.544Z,30.15
2023-02-14T15:48:09.525Z,32.13
2023-02-14T15:50:36.471Z,30.50
2023-02-14T15:53:03.862Z,29.85
2023-02-14T15:55:30.772Z,29.90
2023-02-14T15:57:57.701Z,30.60
2023-02-14T16:00:25.647Z,29.73
2023-02-14T16:02:52.717Z,31.80
2023-02-14T16:05:19.697Z,31.20
2023-02-14T16:07:46.628Z,30.85
2023-02-14T16:10:13.548Z,31.60
2023-02-14T16:12:40.499Z,31.73
2023-02-14T16:15:07.429Z,34.15
2023-02-14T16:17:34.352Z,31.35
2023-02-14T16:20:01.376Z,33.58
2023-02-14T16:22:28.325Z,34.17
2023-02-14T16:24:55.336Z,33.55
2023-02-14T16:27:22.264Z,31.85
2023-02-14T16:29:49.340Z,29.48
2023-02-14T16:32:17.375Z,33.75
2023-02-14T16:34:44.636Z,33.53
2023-02-14T16:37:11.592Z,34.60
2023-02-14T16:39:38.549Z,35.08
2023-02-14T16:42:05.492Z,35.92
2023-02-14T16:44:32.433Z,36.25
2023-02-14T16:46:59.378Z,38.10
2023-02-14T16:49:26.306Z,34.47
2023-02-14T16:51:53.219Z,35.30
2023-02-14T16:54:20.190Z,34.88
2023-02-14T16:56:47.113Z,35.70
2023-02-14T16:59:14.051Z,36.03
2023-02-14T17:01:41.024Z,39.45
2023-02-14T17:04:08.092Z,37.03
2023-02-14T17:06:35.183Z,37.88
2023-02-14T17:09:02.131Z,39.65
2023-02-14T17:11:29.095Z,41.90
2023-02-14T17:13:56.020Z,43.25
2023-02-14T17:16:22.947Z,43.05
2023-02-14T17:18:49.888Z,43.55
2023-02-14T17:21:16.779Z,45.38
2023-02-14T17:23:43.696Z,46.05
2023-02-14T17:26:13.646Z,45.05
2023-02-14T17:28:40.597Z,44.63
2023-02-14T17:31:08.099Z,42.22
2023-02-14T17:33:35.120Z,43.53
2023-02-14T17:36:02.022Z,44.65
2023-02-14T17:38:28.961Z,42.97
2023-02-14T17:40:55.884Z,41.22
2023-02-14T17:43:22.814Z,41.60
2023-02-14T17:45:49.710Z,46.70
2023-02-14T17:48:16.633Z,42.80
2023-02-14T17:50:46.814Z,45.13
2023-02-14T17:53:13.758Z,46.35
2023-02-14T17:55:40.663Z,48.70
2023-02-14T17:58:07.617Z,43.50
2023-02-14T18:00:34.599Z,44.83
2023-02-14T18:03:01.522Z,48.42
2023-02-14T18:05:28.496Z,44.30
2023-02-14T18:07:55.407Z,42.70
2023-02-14T18:10:22.384Z,47.13
2023-02-14T18:12:49.322Z,44.47
2023-02-14T18:15:16.285Z,47.35
2023-02-14T18:17:43.175Z,48.88
2023-02-14T18:20:10.417Z,46.20
2023-02-14T18:22:37.517Z,44.85
2023-02-14T18:25:04.513Z,46.92
2023-02-14T18:27:31.423Z,48.88
2023-02-14T18:29:59.004Z,45.53
2023-02-14T18:32:28.153Z,43.83
2023-02-14T18:34:55.220Z,48.47
2023-02-14T18:37:22.282Z,44.15
2023-02-14T18:39:49.364Z,48.05
2023-02-14T18:42:16.703Z,44.53
2023-02-14T18:44:43.646Z,43.90
2023-02-14T18:47:10.540Z,45.22
2023-02-14T18:49:37.595Z,49.10
2023-02-14T18:52:04.492Z,42.03
2023-02-14T18:54:31.402Z,46.00
2023-02-14T18:56:58.296Z,42.63
2023-02-14T18:59:25.252Z,44.65
2023-02-14T19:01:52.257Z,44.05
2023-02-14T19:04:19.905Z,43.00
2023-02-14T19:06:47.084Z,42.47
2023-02-14T19:09:38.478Z,44.38
2023-02-14T19:12:03.660Z,44.35
2023-02-14T19:14:30.812Z,44.55
2023-02-14T19:16:57.757Z,43.97
2023-02-14T19:19:24.710Z,47.08
2023-02-14T19:21:52.007Z,45.58
2023-02-14T19:24:19.100Z,49.83
2023-02-14T19:26:45.994Z,46.38
2023-02-14T19:29:13.093Z,48.58
2023-02-14T19:31:40.128Z,46.00
2023-02-14T19:34:09.805Z,50.60
2023-02-14T19:36:36.726Z,49.45
2023-02-14T19:39:03.738Z,54.70
2023-02-14T19:41:30.742Z,50.95
2023-02-14T19:43:57.635Z,55.63
2023-02-14T19:46:24.574Z,55.80
2023-02-14T19:48:52.129Z,51.05
2023-02-14T19:51:19.178Z,50.83
2023-02-14T19:53:46.250Z,49.95
2023-02-14T19:56:13.656Z,53.22
2023-02-14T19:58:40.711Z,50.35
2023-02-14T20:01:07.826Z,46.83
2023-02-14T20:03:35.054Z,47.53
2023-02-14T20:06:01.960Z,46.17
2023-02-14T20:08:28.885Z,48.17
2023-02-14T20:10:56.459Z,44.20
2023-02-14T20:13:23.348Z,42.50
2023-02-14T20:15:50.267Z,42.83
2023-02-14T20:18:17.372Z,45.53
2023-02-14T20:20:44.335Z,45.63
2023-02-14T20:23:11.340Z,43.25
2023-02-14T20:25:38.277Z,43.03
2023-02-14T20:28:05.158Z,43.83
2023-02-14T20:30:32.069Z,46.67
2023-02-14T20:32:58.959Z,49.13
2023-02-14T20:35:25.860Z,47.00
2023-02-14T20:37:52.775Z,46.88
2023-02-14T20:40:19.726Z,42.45
2023-02-14T20:42:47.681Z,41.65
2023-02-14T20:45:14.597Z,46.53
2023-02-14T20:47:41.517Z,49.83
2023-02-14T20:50:09.343Z,54.70
2023-02-14T20:52:37.614Z,49.97
2023-02-14T20:55:04.517Z,53.03
2023-02-14T20:57:31.531Z,44.22
2023-02-14T20:59:58.477Z,41.97
2023-02-14T21:02:25.420Z,43.08
2023-02-14T21:04:52.526Z,41.58
2023-02-14T21:07:22.758Z,40.05
2023-02-14T21:09:49.655Z,39.10
2023-02-14T21:12:16.576Z,40.20
2023-02-14T21:14:43.524Z,41.35
2023-02-14T21:17:10.512Z,35.40
2023-02-14T21:19:37.485Z,34.08
2023-02-14T21:22:04.414Z,32.42
2023-02-14T21:24:31.325Z,34.78
2023-02-14T21:26:58.219Z,33.70
2023-02-14T21:29:25.428Z,34.97
2023-02-14T21:31:52.481Z,33.42
2023-02-14T21:34:19.886Z,33.25
2023-02-14T21:36:46.856Z,31.35
2023-02-14T21:39:13.778Z,34.05
2023-02-14T21:41:40.667Z,30.80
2023-02-14T21:44:07.573Z,33.20
2023-02-14T21:46:37.106Z,32.78
2023-02-14T21:49:04.538Z,30.98
2023-02-14T21:51:34.213Z,34.60
2023-02-14T21:54:01.158Z,34.63
2023-02-14T21:56:30.475Z,32.40
2023-02-14T21:58:57.368Z,32.72
2023-02-14T22:01:24.355Z,33.42
2023-02-14T22:03:51.323Z,34.38
2023-02-14T22:06:18.232Z,34.28
2023-02-14T22:08:45.280Z,34.65
2023-02-14T22:11:12.212Z,36.33
2023-02-14T22:13:39.107Z,36.70
2023-02-14T22:16:06.083Z,34.15
2023-02-14T22:18:32.991Z,32.60
2023-02-14T22:21:00.256Z,33.88
2023-02-14T22:23:29.018Z,32.20
2023-02-14T22:25:56.031Z,31.08
2023-02-14T22:28:22.920Z,35.58
2023-02-14T22:30:49.860Z,34.13
2023-02-14T22:33:16.764Z,34.13
2023-02-14T22:35:43.673Z,35.28
2023-02-14T22:38:12.036Z,33.92
2023-02-14T22:40:39.635Z,33.80
2023-02-14T22:43:06.527Z,32.50
2023-02-14T22:45:33.484Z,32.97
2023-02-14T22:48:00.368Z,33.42
2023-02-14T22:50:27.311Z,31.63
2023-02-14T22:52:54.220Z,33.72
2023-02-14T23:03:41.681Z,34.22
2023-02-14T23:31:38.960Z,31.80
2023-02-14T23:45:32.788Z,35.03
